Skip Navigation Links
NOAA logo - Click to go to the NOAA homepage
NOAA's National Weather Service
Alaska Aviation Weather Unit
  NWS logo - Click to go to the NWS homepage
Left Navbar Graphic     19 AKDT = 03 GMT

   
NOAA is celebrating 200 years of science, service, and stewardship. Visit the NOAA 200th celebration Web site to learn more.
USA.gov is the U.S. Government's official Web portal to all Federal, state and local government Web resources and services.
Facebook
NWS on Facebook

Important Change Regarding the AAWU Web Presence

 

Over the last several months, the AAWU has been working to navigate its webpages to a nationally supported server. Security, as well as other needs, have necessitated the change.  In the process, we have made an effort to enhance the functionality of our website, as well as some of our products. As of June 20, 2017, aawu.arh.noaa.gov will be discontinued. The new AAWU web address is weather.gov/aawu. It is now live and will run in-parallel with the old site until it is discontinued. Please send any feedback or questions regarding the new webpages to nws.ar.aawu.webauthors@noaa.gov.  Thank you for your patience during this time of transition.
AAWU Home :: Display TAF Add Bookmark
PATL 242128Z AUTO 20013KT 150V220 10SM -RA FEW012 OVC016 05/04
A2970=

PATL 242143Z AUTO 21010KT 170V260 10SM -RA OVC011 05/05 A2970=

METAR PATL 242155Z AUTO 21007KT 160V250 9SM RA BKN008 05/05 A2969=

METAR PATL 242255Z AUTO 22010KT 170V250 10SM -RA OVC006 05/04 A2970=

PATL 242328Z AUTO 23010KT 170V280 10SM -RA SCT008 BKN022 04/03
A2971=

METAR PATL 242355Z AUTO 24010KT 190V330 10SM -RA BKN007 BKN030 04/03
     A2972=

METAR PATL 250055Z AUTO VRB06KT 10SM SCT010 BKN055 04/03 A2973=

PATL 250113Z AUTO 21008KT 180V250 10SM BKN010 BKN055 05/03 A2974=

PATL 250128Z AUTO 21010KT 120V240 10SM BKN013 05/03 A2974=

METAR PATL 250155Z AUTO 23012KT 160V260 10SM RA BKN010 03/02 A2976=

PATL 250158Z AUTO 22011G19KT 140V250 9SM RA BKN009 03/02 A2976=

PATL 250213Z AUTO 23013G18KT 170V310 10SM -RA OVC010 03/02 A2977=

PATL 250228Z AUTO 22010KT 180V260 10SM -RA BKN008 OVC023 03/02
A2977=

PATL 250243Z AUTO 22013KT 190V250 10SM -RA BKN005 OVC023 02/02
A2977=


NOAA's National Weather Service
Alaska Aviation Weather Unit
6930 Sand Lake Road
Anchorage, AK 99502-1845
Disclaimer
Credits
Glossary
Privacy Policy
About Us
Career Opportunities
Contact AAWU Internet Services Site last modified: April, 17th 2012